Time;durP1;ratioP1;P1;durP2;ratioP2;P2;SDS_P1;SDS_P2;PMS_P1;PMS_P2;Temp;Humidity;BMP_temperature;BMP_pressure;BME280_temperature;BME280_humidity;BME280_pressure;Samples;Min_cycle;Max_cycle;Signal;HPM_P1;HPM_P2
2022/01/25 00:09:09;;;;;;;81.78;45.60;;;;;;;-144.19;100.00;79253.22;6124838;23;20025;-85
2022/01/25 00:25:56;;;;;;;79.18;41.92;;;;;;;-144.19;100.00;79263.06;6123825;23;20349;-86
2022/01/25 00:28:22;;;;;;;78.70;41.85;;;;;;;-144.19;100.00;79253.22;6123696;23;20028;-86
2022/01/25 00:33:34;;;;;;;81.65;44.15;;;;;;;-144.19;100.00;79245.34;6123948;23;20022;-86
2022/01/25 00:36:02;;;;;;;79.80;44.00;;;;;;;-144.19;100.00;79245.34;6123622;23;20026;-86
2022/01/25 00:38:28;;;;;;;78.55;43.00;;;;;;;-144.19;100.00;79255.19;6123932;23;20245;-87
2022/01/25 00:40:55;;;;;;;80.28;45.88;;;;;;;-144.19;100.00;79249.28;6121865;23;20022;-86
2022/01/25 00:43:23;;;;;;;78.75;43.03;;;;;;;-144.19;100.00;79261.09;6122425;23;20029;-86
2022/01/25 00:45:52;;;;;;;81.47;43.95;;;;;;;-144.19;100.00;79261.09;6122255;23;20462;-86
2022/01/25 00:48:30;;;;;;;78.82;44.30;;;;;;;-144.19;100.00;79272.91;6122057;23;20033;-87
2022/01/25 00:51:15;;;;;;;;;;;;;;;-144.19;100.00;79272.91;6124016;23;20022;-86
2022/01/25 00:53:57;;;;;;;83.32;43.05;;;;;;;-144.19;100.00;79270.94;6121929;23;19917;-85
2022/01/25 00:56:26;;;;;;;79.32;42.47;;;;;;;-144.19;100.00;79265.03;6122194;23;20028;-85
2022/01/25 00:58:53;;;;;;;80.53;43.85;;;;;;;-144.19;100.00;79265.03;6121555;23;20026;-87
2022/01/25 01:01:20;;;;;;;79.97;43.05;;;;;;;-144.19;100.00;79268.97;6123576;23;20032;-86
2022/01/25 01:03:47;;;;;;;84.05;44.25;;;;;;;-144.19;100.00;79261.09;6097349;23;20021;-86
2022/01/25 01:06:15;;;;;;;85.30;44.55;;;;;;;-144.19;100.00;79261.09;6097753;23;20470;-86
2022/01/25 01:08:42;;;;;;;78.95;45.33;;;;;;;-144.19;100.00;79255.19;6097149;23;20029;-86
2022/01/25 01:11:15;;;;;;;73.13;41.00;;;;;;;-144.19;100.00;79261.09;6097901;23;20022;-86
2022/01/25 01:13:55;;;;;;;82.03;43.00;;;;;;;-144.19;100.00;79259.13;6097860;23;20029;-86
2022/01/25 01:41:02;;;;;;;78.18;41.47;;;;;;;-144.19;100.00;79257.16;6110492;23;20026;-85
2022/01/25 01:43:36;;;;;;;83.27;44.50;;;;;;;-144.19;100.00;79257.16;6097723;23;20022;-85
2022/01/25 01:48:52;;;;;;;74.15;40.50;;;;;;;-144.19;100.00;79270.94;6123672;23;20241;-86
2022/01/25 01:51:28;;;;;;;79.18;42.03;;;;;;;-144.19;100.00;79261.09;6098024;23;20021;-86
2022/01/25 01:53:57;;;;;;;77.70;41.10;;;;;;;-144.19;100.00;79280.78;6123269;23;20266;-85
2022/01/25 01:56:25;;;;;;;79.22;42.58;;;;;;;-144.19;100.00;79265.03;6122936;23;20022;-85
2022/01/25 01:58:55;;;;;;;74.43;41.83;;;;;;;-144.19;100.00;79278.81;6097805;23;20034;-85
2022/01/25 02:01:24;;;;;;;78.22;41.67;;;;;;;-144.19;100.00;79265.03;6112534;23;20018;-85
2022/01/25 02:03:52;;;;;;;75.65;40.60;;;;;;;-144.19;100.00;79257.16;6123294;23;20479;-86
2022/01/25 02:06:19;;;;;;;73.20;38.60;;;;;;;-144.19;100.00;79263.06;6121830;23;20028;-85
2022/01/25 02:08:45;;;;;;;69.57;37.88;;;;;;;-144.19;100.00;79255.19;6123306;23;20355;-85
2022/01/25 02:11:13;;;;;;;69.97;37.65;;;;;;;-144.19;100.00;79253.22;6121535;23;20029;-85
2022/01/25 02:13:41;;;;;;;69.72;37.63;;;;;;;-144.19;100.00;79243.38;6123270;23;20022;-85
2022/01/25 02:16:17;;;;;;;70.40;38.33;;;;;;;-144.19;100.00;79253.22;6123093;23;20025;-85
2022/01/25 02:24:13;;;;;;;62.47;34.85;;;;;;;-144.19;100.00;79257.16;6123298;23;20026;-86
2022/01/25 02:26:40;;;;;;;48.60;28.40;;;;;;;-144.19;100.00;79276.84;6121943;23;20025;-84
2022/01/25 02:29:07;;;;;;;58.58;32.58;;;;;;;-144.19;100.00;79265.03;6123236;23;20470;-85
2022/01/25 02:31:33;;;;;;;57.73;33.27;;;;;;;-144.19;100.00;79257.16;6122099;23;20025;-85
2022/01/25 02:33:59;;;;;;;70.70;38.60;;;;;;;-144.19;100.00;79249.28;6123377;23;20630;-87
2022/01/25 02:36:28;;;;;;;64.20;36.07;;;;;;;-144.19;100.00;79239.44;6122950;23;20028;-84
2022/01/25 02:38:55;;;;;;;69.85;39.50;;;;;;;-144.19;100.00;79233.53;6123746;23;20028;-86
2022/01/25 02:41:23;;;;;;;64.13;36.15;;;;;;;-144.19;100.00;79245.34;6124805;23;20024;-85
2022/01/25 02:43:50;;;;;;;65.95;34.13;;;;;;;-144.19;100.00;79241.41;6123631;23;20383;-86
2022/01/25 02:46:24;;;;;;;64.75;36.25;;;;;;;-144.19;100.00;79253.22;6123083;23;20030;-86
2022/01/25 02:48:56;;;;;;;75.63;39.30;;;;;;;-144.19;100.00;79253.22;6123751;23;20049;-86
2022/01/25 02:51:29;;;;;;;70.30;37.60;;;;;;;-144.19;100.00;79261.09;6124824;23;20022;-85
2022/01/25 02:53:56;;;;;;;72.85;40.70;;;;;;;-144.19;100.00;79272.91;6123467;23;20022;-86
2022/01/25 02:56:23;;;;;;;72.43;39.30;;;;;;;-144.19;100.00;79274.88;6124940;23;20366;-86
2022/01/25 02:58:50;;;;;;;72.10;38.67;;;;;;;-144.19;100.00;79259.13;6124721;23;20028;-86
2022/01/25 03:01:18;;;;;;;68.80;36.63;;;;;;;-144.19;100.00;79255.19;6123113;23;20024;-86
2022/01/25 03:03:44;;;;;;;72.13;39.28;;;;;;;-144.19;100.00;79247.31;6124359;23;20025;-86
2022/01/25 03:06:20;;;;;;;70.37;36.40;;;;;;;-144.19;100.00;79245.34;6123165;23;20105;-86
2022/01/25 03:08:48;;;;;;;85.28;37.47;;;;;;;-144.19;100.00;79239.44;6124748;23;20252;-85
2022/01/25 03:11:15;;;;;;;64.30;34.00;;;;;;;-144.19;100.00;79237.47;6124865;23;20032;-85
2022/01/25 03:13:50;;;;;;;;;;;;;;;-144.19;100.00;79233.53;6123812;23;20082;-85
2022/01/25 03:18:56;;;;;;;62.03;34.08;;;;;;;-144.19;100.00;79223.69;6125180;23;20022;-85
2022/01/25 03:23:54;;;;;;;59.63;33.50;;;;;;;-144.19;100.00;79233.53;6125161;23;20021;-85
2022/01/25 03:26:22;;;;;;;64.82;34.53;;;;;;;-144.19;100.00;79231.56;6123288;23;20351;-85
2022/01/25 03:28:49;;;;;;;68.35;36.28;;;;;;;-144.19;100.00;79229.59;6123319;23;20032;-85
2022/01/25 03:31:15;;;;;;;;;;;;;;;-144.19;100.00;79229.59;6124887;23;20028;-86
2022/01/25 03:33:43;;;;;;;64.65;35.20;;;;;;;-144.19;100.00;79229.59;6124472;23;19921;-86
2022/01/25 03:36:10;;;;;;;59.75;31.75;;;;;;;-144.19;100.00;79233.53;6125275;23;20022;-86
2022/01/25 03:38:38;;;;;;;59.97;32.75;;;;;;;-144.19;100.00;79249.28;6125665;23;20396;-86
2022/01/25 03:41:07;;;;;;;65.15;35.97;;;;;;;-144.19;100.00;79245.34;6126086;23;20210;-86
2022/01/25 03:43:35;;;;;;;67.38;34.70;;;;;;;-144.19;100.00;79245.34;6124311;23;20048;-85
2022/01/25 03:51:02;;;;;;;59.77;32.93;;;;;;;-144.19;100.00;79239.44;6126682;23;20021;-85
2022/01/25 03:53:29;;;;;;;67.10;33.37;;;;;;;-144.19;100.00;79239.44;6124574;23;20100;-84
2022/01/25 03:55:55;;;;;;;66.75;36.13;;;;;;;-144.19;100.00;79253.22;6123007;23;20241;-85
2022/01/25 03:58:22;;;;;;;58.27;32.27;;;;;;;-144.19;100.00;79257.16;6123706;23;20097;-85
2022/01/25 04:00:49;;;;;;;68.07;35.87;;;;;;;-144.19;100.00;79243.38;6122965;23;20032;-85
2022/01/25 04:03:24;;;;;;;63.72;34.50;;;;;;;-144.19;100.00;79241.41;6123543;23;20057;-85
2022/01/25 04:05:52;;;;;;;51.85;28.48;;;;;;;-144.19;100.00;79245.34;6123553;23;20082;-85
2022/01/25 04:08:19;;;;;;;55.00;29.55;;;;;;;-144.19;100.00;79225.66;6122872;23;20022;-86
2022/01/25 04:10:46;;;;;;;;;;;;;;;-144.19;100.00;79245.34;6124941;23;20034;-87
2022/01/25 04:13:13;;;;;;;68.70;34.97;;;;;;;-144.19;100.00;79253.22;6123731;23;20330;-87
2022/01/25 04:15:45;;;;;;;70.97;35.25;;;;;;;-144.19;100.00;79257.16;6124696;23;20022;-87
2022/01/25 04:18:26;;;;;;;61.60;33.22;;;;;;;-144.19;100.00;79259.13;6122761;23;20029;-87
2022/01/25 04:21:02;;;;;;;58.13;31.95;;;;;;;-144.19;100.00;79253.22;6124838;23;20022;-87
2022/01/25 04:26:13;;;;;;;53.67;28.65;;;;;;;-144.19;100.00;79249.28;6123569;23;20029;-86
2022/01/25 04:28:39;;;;;;;55.47;30.00;;;;;;;-144.19;100.00;79237.47;6124075;23;20497;-87
2022/01/25 04:31:06;;;;;;;59.40;31.03;;;;;;;-144.19;100.00;79231.56;6124180;23;20057;-84
2022/01/25 04:33:42;;;;;;;55.55;30.98;;;;;;;-144.19;100.00;79229.59;6122747;23;20021;-83
2022/01/25 04:49:42;;;;;;;61.75;34.15;;;;;;;-144.19;100.00;79231.56;6124594;23;20026;-86
2022/01/25 04:52:13;;;;;;;60.08;31.77;;;;;;;-144.19;100.00;79225.66;6121793;23;20025;-86
2022/01/25 04:54:51;;;;;;;59.70;31.33;;;;;;;-144.19;100.00;79227.63;6124220;23;20029;-85
2022/01/25 05:02:19;;;;;;;64.55;32.45;;;;;;;-144.19;100.00;79231.56;6123569;23;20018;-86
2022/01/25 05:04:55;;;;;;;60.08;32.53;;;;;;;-144.19;100.00;79249.28;6123893;23;20022;-87
2022/01/25 05:09:52;;;;;;;60.42;31.30;;;;;;;-144.19;100.00;79255.19;6123437;23;20037;-86
2022/01/25 05:12:30;;;;;;;59.28;31.23;;;;;;;-144.19;100.00;79237.47;6097537;23;20022;-86
2022/01/25 05:15:07;;;;;;;63.33;33.10;;;;;;;-144.19;100.00;79245.34;6123625;23;20077;-86
2022/01/25 05:17:40;;;;;;;61.38;32.90;;;;;;;-144.19;100.00;79237.47;6124361;23;20026;-85
2022/01/25 05:22:52;;;;;;;59.03;31.23;;;;;;;-144.19;100.00;79268.97;6124541;23;20069;-85
2022/01/25 05:25:18;;;;;;;59.43;30.43;;;;;;;-144.19;100.00;79245.34;6098080;23;20022;-86
2022/01/25 05:27:44;;;;;;;62.73;30.37;;;;;;;-144.19;100.00;79249.28;6098184;23;20032;-85
2022/01/25 05:30:11;;;;;;;58.27;30.13;;;;;;;-144.19;100.00;79259.13;6094038;23;20029;-86
2022/01/25 05:32:38;;;;;;;55.05;28.60;;;;;;;-144.19;100.00;79268.97;6095347;23;20022;-84
2022/01/25 05:35:05;;;;;;;57.00;29.58;;;;;;;-144.19;100.00;79257.16;6123313;23;20032;-85
2022/01/25 05:37:36;;;;;;;61.60;30.70;;;;;;;-144.19;100.00;79259.13;6123161;23;20051;-85
2022/01/25 05:40:07;;;;;;;61.03;31.20;;;;;;;-144.19;100.00;79257.16;6098088;23;20025;-84
2022/01/25 05:45:37;;;;;;;57.97;30.75;;;;;;;-144.19;100.00;79237.47;6124015;23;20022;-85
2022/01/25 05:47:54;;;;;;;63.05;32.03;;;;;;;-144.19;100.00;79241.41;6122337;23;20022;-87
2022/01/25 05:50:24;;;;;;;61.05;33.20;;;;;;;-144.19;100.00;79243.38;6100200;23;20086;-85
2022/01/25 05:52:51;;;;;;;64.97;32.33;;;;;;;-144.19;100.00;79257.16;6124202;23;20037;-87
2022/01/25 05:55:17;;;;;;;59.47;31.60;;;;;;;-144.19;100.00;79243.38;6124355;23;20250;-83
2022/01/25 05:57:43;;;;;;;59.47;31.43;;;;;;;-144.19;100.00;79239.44;6098231;23;20410;-83
2022/01/25 06:00:10;;;;;;;55.80;30.03;;;;;;;-144.19;100.00;79237.47;6097432;23;20052;-88
2022/01/25 06:02:36;;;;;;;56.60;29.08;;;;;;;-144.19;100.00;79249.28;6121981;23;20312;-84
2022/01/25 06:05:05;;;;;;;56.67;28.77;;;;;;;-144.19;100.00;79247.31;6122950;23;20026;-84
2022/01/25 06:07:32;;;;;;;61.35;30.77;;;;;;;-144.19;100.00;79265.03;6123167;23;20026;-85
2022/01/25 06:09:59;;;;;;;58.75;30.27;;;;;;;-144.19;100.00;79245.34;6123300;23;20725;-84
2022/01/25 06:12:25;;;;;;;53.80;28.57;;;;;;;-144.19;100.00;79241.41;6122658;23;20038;-86
2022/01/25 06:14:51;;;;;;;59.63;31.27;;;;;;;-144.19;100.00;79247.31;6125250;23;20439;-85
2022/01/25 06:17:18;;;;;;;57.63;32.23;;;;;;;-144.19;100.00;79241.41;6125492;23;20340;-84
2022/01/25 06:19:44;;;;;;;57.67;29.30;;;;;;;-144.19;100.00;79249.28;6124791;23;20021;-85
2022/01/25 06:22:10;;;;;;;60.60;30.23;;;;;;;-144.19;100.00;79233.53;6125659;23;20203;-85
2022/01/25 06:24:37;;;;;;;59.03;30.63;;;;;;;-144.19;100.00;79237.47;6124122;23;20022;-84
2022/01/25 06:27:05;;;;;;;54.85;28.85;;;;;;;-144.19;100.00;79229.59;6123831;23;20253;-86
2022/01/25 06:29:31;;;;;;;58.90;29.00;;;;;;;-144.19;100.00;79229.59;6123579;23;20022;-85
2022/01/25 06:31:59;;;;;;;53.60;27.80;;;;;;;-144.19;100.00;79229.59;6123314;23;20037;-86
2022/01/25 06:34:25;;;;;;;56.85;29.83;;;;;;;-144.19;100.00;79225.66;6125300;23;20315;-86
2022/01/25 06:36:52;;;;;;;59.75;28.17;;;;;;;-144.19;100.00;79231.56;6123882;23;20022;-85
2022/01/25 06:39:18;;;;;;;59.80;29.93;;;;;;;-144.19;100.00;79229.59;6125325;23;20041;-85
2022/01/25 06:41:45;;;;;;;59.37;29.83;;;;;;;-144.19;100.00;79257.16;6123552;23;20022;-86
2022/01/25 06:44:11;;;;;;;61.57;30.70;;;;;;;-144.19;100.00;79241.41;6123779;23;20017;-86
2022/01/25 06:46:38;;;;;;;58.72;30.38;;;;;;;-144.19;100.00;79233.53;6123977;23;20261;-87
2022/01/25 06:49:04;;;;;;;58.33;28.87;;;;;;;-144.19;100.00;79237.47;6123724;23;20030;-84
2022/01/25 06:51:31;;;;;;;59.92;29.38;;;;;;;-144.19;100.00;79249.28;6123866;23;20246;-85
2022/01/25 06:53:57;;;;;;;61.25;31.48;;;;;;;-144.19;100.00;79263.06;6123498;23;20022;-85
2022/01/25 06:56:24;;;;;;;56.17;29.90;;;;;;;-144.19;100.00;79257.16;6124735;23;20032;-86
2022/01/25 06:58:50;;;;;;;55.87;27.70;;;;;;;-144.19;100.00;79270.94;6123381;23;20026;-85
2022/01/25 07:01:17;;;;;;;53.70;27.77;;;;;;;-144.19;100.00;79261.09;6123378;23;20358;-85
2022/01/25 07:03:45;;;;;;;56.00;28.85;;;;;;;-144.19;100.00;79259.13;6122592;23;20482;-85
2022/01/25 07:06:12;;;;;;;59.92;30.73;;;;;;;-144.19;100.00;79235.50;6097946;23;20026;-86
2022/01/25 07:08:38;;;;;;;56.00;27.40;;;;;;;-144.19;100.00;79245.34;6097838;23;20105;-86
2022/01/25 07:11:05;;;;;;;56.93;27.87;;;;;;;-144.19;100.00;79257.16;6097366;23;20032;-86
2022/01/25 07:13:31;;;;;;;58.97;29.15;;;;;;;-144.19;100.00;79233.53;6097871;23;20028;-87
2022/01/25 07:15:58;;;;;;;58.00;27.70;;;;;;;-144.19;100.00;79237.47;6123085;23;20018;-85
2022/01/25 07:18:24;;;;;;;57.63;28.77;;;;;;;-144.19;100.00;79249.28;6097802;23;20034;-87
2022/01/25 07:20:50;;;;;;;55.87;28.60;;;;;;;-144.19;100.00;79257.16;6097751;23;20253;-86
2022/01/25 07:23:17;;;;;;;58.17;27.67;;;;;;;-144.19;100.00;79249.28;6097759;23;20354;-87
2022/01/25 07:25:43;;;;;;;62.80;29.63;;;;;;;-144.19;100.00;79249.28;6124160;23;20030;-87
2022/01/25 07:28:09;;;;;;;52.93;28.93;;;;;;;-144.19;100.00;79253.22;6124572;23;20252;-87
2022/01/25 07:30:36;;;;;;;57.50;29.83;;;;;;;-144.19;100.00;79257.16;6097932;23;20017;-88
2022/01/25 07:33:24;;;;;;;59.45;30.20;;;;;;;-144.19;100.00;79241.41;6123017;23;20344;-88
2022/01/25 07:35:50;;;;;;;59.65;28.65;;;;;;;-144.19;100.00;79261.09;6097887;23;20093;-87
2022/01/25 07:38:20;;;;;;;53.08;28.05;;;;;;;-144.19;100.00;79257.16;6097995;23;20073;-86
2022/01/25 07:40:53;;;;;;;61.72;29.23;;;;;;;-144.19;100.00;79249.28;6098692;23;20026;-87
2022/01/25 07:43:26;;;;;;;57.13;28.15;;;;;;;-144.19;100.00;79263.06;6122643;23;20068;-86
2022/01/25 07:46:04;;;;;;;56.78;28.80;;;;;;;-144.19;100.00;79245.34;6099198;23;20106;-85
2022/01/25 07:48:34;;;;;;;55.05;27.42;;;;;;;-144.19;100.00;79268.97;6122788;23;20112;-86
2022/01/25 07:51:09;;;;;;;56.47;28.25;;;;;;;-144.19;100.00;79270.94;6099832;23;20033;-85
2022/01/25 07:53:37;;;;;;;57.45;28.88;;;;;;;-144.19;100.00;79263.06;6096933;23;20480;-87
2022/01/25 07:56:04;;;;;;;57.97;28.60;;;;;;;-144.19;100.00;79257.16;6123468;23;20029;-86
2022/01/25 07:58:30;;;;;;;59.30;28.05;;;;;;;-144.19;100.00;79253.22;6098599;23;20458;-86
2022/01/25 08:03:38;;;;;;;63.00;29.90;;;;;;;-144.19;100.00;79251.25;6124864;23;20601;-87
2022/01/25 08:06:12;;;;;;;58.70;27.98;;;;;;;-144.19;100.00;79249.28;6124777;23;20037;-88
2022/01/25 08:08:46;;;;;;;60.97;31.05;;;;;;;-144.19;100.00;79241.41;6123581;23;20026;-87
2022/01/25 08:11:26;;;;;;;59.78;29.00;;;;;;;-144.19;100.00;79245.34;6124790;23;20018;-88
2022/01/25 08:14:13;;;;;;;60.83;29.38;;;;;;;-144.19;100.00;79237.47;6122893;23;20081;-88
2022/01/25 08:16:48;;;;;;;57.72;28.98;;;;;;;-144.19;100.00;79280.78;6124852;23;20026;-87
2022/01/25 08:19:20;;;;;;;62.50;29.23;;;;;;;-144.19;100.00;79276.84;6123527;23;20029;-87
2022/01/25 08:22:00;;;;;;;63.17;30.92;;;;;;;-144.19;100.00;79225.66;6115293;23;20028;-87
2022/01/25 08:25:07;;;;;;;42.13;23.48;;;;;;;-144.19;100.00;79247.31;6043226;23;20081;-87
2022/01/25 08:27:48;;;;;;;49.95;27.23;;;;;;;-144.19;100.00;79237.47;6124211;23;20362;-87
2022/01/25 08:30:32;;;;;;;56.85;27.52;;;;;;;-144.19;100.00;79235.50;6095445;23;20022;-87
2022/01/25 08:33:16;;;;;;;54.88;28.02;;;;;;;-144.19;100.00;79241.41;6123090;23;20073;-87
2022/01/25 08:35:56;;;;;;;56.92;29.33;;;;;;;-144.19;100.00;79247.31;6114150;23;20518;-87
2022/01/25 08:38:30;;;;;;;60.88;30.25;;;;;;;-144.19;100.00;79249.28;6123553;23;20026;-87
2022/01/25 08:41:14;;;;;;;57.90;28.15;;;;;;;-144.19;100.00;79231.56;6124367;23;20022;-88
2022/01/25 08:44:04;;;;;;;59.65;29.42;;;;;;;-144.19;100.00;79207.91;6121135;23;20018;-88
2022/01/25 08:46:42;;;;;;;62.10;29.73;;;;;;;-144.19;100.00;79217.75;6122870;23;20026;-88
2022/01/25 08:49:17;;;;;;;59.90;29.13;;;;;;;-144.19;100.00;79241.41;6124183;23;20026;-87
2022/01/25 08:51:58;;;;;;;56.53;29.13;;;;;;;-144.19;100.00;79223.69;6118493;23;20025;-87
2022/01/25 08:54:41;;;;;;;60.00;30.52;;;;;;;-144.19;100.00;79209.88;6104506;23;20032;-89
2022/01/25 08:57:25;;;;;;;63.28;30.15;;;;;;;-144.19;100.00;79215.78;6047272;23;20026;-88
2022/01/25 09:00:15;;;;;;;64.15;31.60;;;;;;;-144.19;100.00;79229.59;6044210;23;20078;-87
2022/01/25 09:02:42;;;;;;;56.30;27.55;;;;;;;-144.19;100.00;79257.16;6039228;23;20027;-88
2022/01/25 09:05:09;;;;;;;59.95;29.58;;;;;;;-144.19;100.00;79239.44;6040418;23;20478;-87
2022/01/25 09:07:36;;;;;;;57.60;28.48;;;;;;;-144.19;100.00;79237.47;6041446;23;20074;-88
2022/01/25 09:10:04;;;;;;;57.70;29.52;;;;;;;-144.19;100.00;79229.59;6039678;23;20472;-87
2022/01/25 09:12:30;;;;;;;60.05;29.42;;;;;;;-144.19;100.00;79233.53;6064907;23;20033;-87
2022/01/25 09:14:56;;;;;;;60.80;31.40;;;;;;;-144.19;100.00;79237.47;6042847;23;20026;-87
2022/01/25 09:17:23;;;;;;;59.73;29.57;;;;;;;-144.19;100.00;79245.34;6042278;23;20259;-87
2022/01/25 09:19:49;;;;;;;60.30;29.57;;;;;;;-144.19;100.00;79257.16;6042836;23;20441;-87
2022/01/25 09:22:16;;;;;;;63.27;30.80;;;;;;;-144.19;100.00;79272.91;6095646;23;20022;-87
2022/01/25 09:24:42;;;;;;;56.90;29.92;;;;;;;-144.19;100.00;79270.94;6124602;23;20106;-87
2022/01/25 09:27:09;;;;;;;54.10;28.37;;;;;;;-144.19;100.00;79257.16;6127285;23;20026;-87
2022/01/25 09:29:37;;;;;;;59.85;29.90;;;;;;;-144.19;100.00;79249.28;6125584;23;20057;-87
2022/01/25 09:32:04;;;;;;;61.25;29.77;;;;;;;-144.19;100.00;79251.25;6124803;23;20022;-87
2022/01/25 09:34:30;;;;;;;59.20;27.85;;;;;;;-144.19;100.00;79255.19;6126663;23;20483;-87
2022/01/25 09:36:57;;;;;;;57.53;29.25;;;;;;;-144.19;100.00;79247.31;6124871;23;20026;-87
2022/01/25 09:39:23;;;;;;;59.07;29.00;;;;;;;-144.19;100.00;79241.41;6126848;23;20026;-87
2022/01/25 09:41:52;;;;;;;53.63;27.80;;;;;;;-144.19;100.00;79253.22;6125029;23;20329;-87
2022/01/25 09:44:18;;;;;;;61.40;30.48;;;;;;;-144.19;100.00;79243.38;6124717;23;20017;-87
2022/01/25 09:46:45;;;;;;;60.03;28.27;;;;;;;-144.19;100.00;79253.22;6126900;23;20092;-87
2022/01/25 09:49:12;;;;;;;60.35;29.05;;;;;;;-144.19;100.00;79263.06;6128250;23;20026;-87
2022/01/25 09:51:41;;;;;;;54.17;26.73;;;;;;;-144.19;100.00;79276.84;6126862;23;20030;-87
2022/01/25 09:54:08;;;;;;;54.40;28.38;;;;;;;-144.19;100.00;79270.94;6127850;23;20265;-87
2022/01/25 09:56:34;;;;;;;60.50;29.48;;;;;;;-144.19;100.00;79276.84;6128734;23;20040;-87
2022/01/25 09:59:01;;;;;;;54.65;27.27;;;;;;;-144.19;100.00;79257.16;6126402;23;20022;-87
2022/01/25 10:01:29;;;;;;;59.92;28.52;;;;;;;-144.19;100.00;79274.88;6126308;23;20047;-87
2022/01/25 10:03:58;;;;;;;65.65;28.67;;;;;;;-144.19;100.00;79288.69;6127707;23;20102;-87
2022/01/25 10:06:31;;;;;;;56.92;27.77;;;;;;;-144.19;100.00;79272.91;6127485;23;20101;-87
2022/01/25 10:08:58;;;;;;;57.47;28.98;;;;;;;-144.19;100.00;79272.91;6128273;23;20021;-86
2022/01/25 10:11:25;;;;;;;58.55;28.98;;;;;;;-144.19;100.00;79263.06;6128666;23;20036;-87
2022/01/25 10:13:56;;;;;;;60.70;29.20;;;;;;;-144.19;100.00;79257.16;6127055;23;20025;-87
2022/01/25 10:16:32;;;;;;;64.18;30.42;;;;;;;-144.19;100.00;79247.31;6125730;23;20028;-87
2022/01/25 10:19:05;;;;;;;60.22;27.95;;;;;;;-144.19;100.00;79268.97;6127095;23;20477;-87
2022/01/25 10:21:37;;;;;;;59.83;27.67;;;;;;;-144.19;100.00;79268.97;6125388;23;20093;-87
2022/01/25 10:24:08;;;;;;;57.47;28.23;;;;;;;-144.19;100.00;79276.84;6124824;23;20036;-86
2022/01/25 10:26:43;;;;;;;58.65;27.85;;;;;;;-144.19;100.00;79268.97;6125955;23;20026;-86
2022/01/25 10:29:34;;;;;;;56.28;26.35;;;;;;;-144.19;100.00;79268.97;6126670;23;20018;-87
2022/01/25 10:32:10;;;;;;;52.72;26.63;;;;;;;-144.19;100.00;79253.22;6125288;23;20029;-87
2022/01/25 10:34:41;;;;;;;52.58;26.95;;;;;;;-144.19;100.00;79280.78;6127362;23;20065;-87
2022/01/25 10:37:09;;;;;;;58.00;28.98;;;;;;;-144.19;100.00;79261.09;6127700;23;20028;-87
2022/01/25 10:39:41;;;;;;;58.95;27.13;;;;;;;-144.19;100.00;79261.09;6127157;23;20021;-87
2022/01/25 10:42:18;;;;;;;55.92;27.65;;;;;;;-144.19;100.00;79276.84;6125423;23;20036;-89
2022/01/25 10:44:45;;;;;;;55.25;27.67;;;;;;;-144.19;100.00;79268.97;6127116;23;20080;-87
2022/01/25 10:47:12;;;;;;;67.55;33.17;;;;;;;-144.19;100.00;79261.09;6126048;23;20022;-87
2022/01/25 10:49:47;;;;;;;55.85;28.70;;;;;;;-144.19;100.00;79265.03;6125027;23;20336;-88
2022/01/25 10:52:13;;;;;;;60.67;29.20;;;;;;;-144.19;100.00;79249.28;6120769;23;20101;-87
2022/01/25 10:54:41;;;;;;;62.10;30.20;;;;;;;-144.19;100.00;79259.13;6125214;23;20018;-88
2022/01/25 10:57:18;;;;;;;66.57;29.75;;;;;;;-144.19;100.00;79249.28;6122007;23;20467;-88
2022/01/25 11:00:00;;;;;;;62.85;30.35;;;;;;;-144.19;100.00;79245.34;6126151;23;20026;-89
2022/01/25 11:02:27;;;;;;;61.65;29.65;;;;;;;-144.19;100.00;79239.44;6123834;23;20336;-89
2022/01/25 11:05:08;;;;;;;62.72;31.60;;;;;;;-144.19;100.00;79233.53;6124122;23;20028;-88
2022/01/25 11:07:39;;;;;;;60.15;29.90;;;;;;;-144.19;100.00;79217.75;6123520;23;20030;-89
2022/01/25 11:10:09;;;;;;;68.07;32.00;;;;;;;-144.19;100.00;79211.84;6123484;23;20022;-88
2022/01/25 11:12:40;;;;;;;56.28;28.55;;;;;;;-144.19;100.00;79237.47;6121953;23;20051;-89
2022/01/25 11:15:27;;;;;;;58.63;28.33;;;;;;;-144.19;100.00;79253.22;6123108;23;20022;-90
2022/01/25 11:17:53;;;;;;;67.60;30.67;;;;;;;-144.19;100.00;79247.31;6124385;23;20036;-89
2022/01/25 11:20:19;;;;;;;57.00;29.83;;;;;;;-144.19;100.00;79241.41;6123351;23;20030;-89
2022/01/25 11:22:46;;;;;;;55.27;27.57;;;;;;;-144.19;100.00;79253.22;6123159;23;20264;-89
2022/01/25 11:25:18;;;;;;;53.28;26.77;;;;;;;-144.19;100.00;79247.31;6123713;23;20018;-89
2022/01/25 11:27:45;;;;;;;61.92;26.80;;;;;;;-144.19;100.00;79257.16;6125686;23;20388;-88
2022/01/25 11:30:15;;;;;;;;;;;;;;;-144.19;100.00;79257.16;6125295;23;20411;-88
2022/01/25 11:32:45;;;;;;;67.00;31.52;;;;;;;-144.19;100.00;79237.47;6124799;23;20316;-89
2022/01/25 11:35:14;;;;;;;56.40;27.92;;;;;;;-144.19;100.00;79198.06;6122834;23;20376;-89
2022/01/25 11:37:45;;;;;;;68.45;30.92;;;;;;;-144.19;100.00;79213.81;6121275;23;20026;-89
2022/01/25 11:40:30;;;;;;;58.55;27.55;;;;;;;-144.19;100.00;79192.16;6124023;23;20032;-89
2022/01/25 11:43:00;;;;;;;53.35;26.45;;;;;;;-144.19;100.00;79233.53;6124713;23;20413;-88
2022/01/25 11:45:29;;;;;;;58.22;27.52;;;;;;;-144.19;100.00;79198.06;6123224;23;20020;-89
2022/01/25 11:47:56;;;;;;;55.13;25.80;;;;;;;-144.19;100.00;79184.28;6122790;23;20022;-89
2022/01/25 11:50:42;;;;;;;53.20;26.65;;;;;;;-144.19;100.00;79186.25;6123007;23;20044;-89
2022/01/25 11:53:12;;;;;;;52.65;26.98;;;;;;;-144.19;100.00;79190.19;6123316;23;20462;-89
2022/01/25 11:55:51;;;;;;;63.72;31.98;;;;;;;-144.19;100.00;79170.50;6122945;23;20022;-89
2022/01/25 11:58:23;;;;;;;55.75;26.02;;;;;;;-144.19;100.00;79162.63;6122670;23;20022;-88
2022/01/25 12:00:53;;;;;;;56.47;26.92;;;;;;;-144.19;100.00;79176.41;6122784;23;20030;-88
2022/01/25 12:03:42;;;;;;;57.65;28.30;;;;;;;-144.19;100.00;79176.41;6122199;23;20054;-90
2022/01/25 12:06:17;;;;;;;58.97;28.98;;;;;;;-144.19;100.00;79190.19;6116775;23;20545;-90
2022/01/25 12:08:52;;;;;;;57.92;28.45;;;;;;;-144.19;100.00;79180.34;6121612;23;20578;-90
2022/01/25 12:12:06;;;;;;;54.53;27.02;;;;;;;-144.19;100.00;79182.31;6122306;23;20032;-90
2022/01/25 12:14:41;;;;;;;51.78;26.00;;;;;;;-144.19;100.00;79209.88;6121801;23;20459;-90
2022/01/25 12:17:12;;;;;;;50.28;25.92;;;;;;;-144.19;100.00;79194.13;6122436;23;20022;-90
2022/01/25 12:19:54;;;;;;;57.47;28.20;;;;;;;-144.19;100.00;79190.19;6122040;23;20140;-90
2022/01/25 12:22:20;;;;;;;64.13;29.30;;;;;;;-144.19;100.00;79182.31;6121221;23;20073;-90
2022/01/25 12:24:57;;;;;;;56.97;27.77;;;;;;;-144.19;100.00;79198.06;6122684;23;20018;-89
2022/01/25 12:28:09;;;;;;;60.35;28.48;;;;;;;-144.19;100.00;79186.25;6121893;23;20032;-90
2022/01/25 12:30:43;;;;;;;49.28;25.65;;;;;;;-144.19;100.00;79174.44;6010410;23;20050;-89
2022/01/25 12:33:20;;;;;;;56.53;26.20;;;;;;;-144.19;100.00;79198.06;6115747;23;20026;-88
2022/01/25 12:36:03;;;;;;;54.67;27.65;;;;;;;-144.19;100.00;79205.94;6123943;23;20334;-87
2022/01/25 12:38:29;;;;;;;49.22;23.73;;;;;;;-144.19;100.00;79209.88;6121907;23;20049;-88
2022/01/25 12:41:13;;;;;;;57.13;26.35;;;;;;;-144.19;100.00;79190.19;6123681;23;20037;-88
2022/01/25 12:43:51;;;;;;;59.40;28.80;;;;;;;-144.19;100.00;79178.38;6123120;23;20025;-87
2022/01/25 12:46:21;;;;;;;64.88;30.20;;;;;;;-144.19;100.00;79178.38;6123463;23;20077;-89
2022/01/25 12:48:59;;;;;;;59.20;28.30;;;;;;;-144.19;100.00;79166.56;6121086;23;20026;-88
2022/01/25 12:51:31;;;;;;;54.38;26.27;;;;;;;-144.19;100.00;79180.34;6121503;23;20489;-88